createdAt,value
2023-05-19T00:00:26.751Z,17.87
2023-05-19T00:05:30.734Z,17.86
2023-05-19T00:10:33.648Z,17.79
2023-05-19T00:15:36.352Z,17.78
2023-05-19T00:20:38.983Z,17.74
2023-05-19T00:25:41.174Z,17.72
2023-05-19T00:30:43.253Z,17.69
2023-05-19T00:35:45.485Z,17.67
2023-05-19T00:40:47.550Z,17.65
2023-05-19T00:45:49.945Z,17.61
2023-05-19T00:50:54.846Z,17.59
2023-05-19T00:55:58.068Z,17.55
2023-05-19T01:01:05.331Z,17.50
2023-05-19T01:06:09.296Z,17.46
2023-05-19T01:11:11.433Z,17.46
2023-05-19T01:16:32.333Z,17.46
2023-05-19T01:24:45.360Z,17.50
2023-05-19T01:30:19.397Z,17.52
2023-05-19T01:35:26.200Z,17.50
2023-05-19T01:40:30.261Z,17.50
2023-05-19T01:45:34.011Z,17.47
2023-05-19T01:50:36.400Z,17.47
2023-05-19T01:55:50.817Z,17.46
2023-05-19T02:01:17.064Z,17.45
2023-05-19T02:06:57.077Z,17.45
2023-05-19T02:12:09.308Z,17.45
2023-05-19T02:19:45.167Z,17.43
2023-05-19T02:24:48.056Z,17.40
2023-05-19T02:29:50.254Z,17.37
2023-05-19T02:34:53.350Z,17.33
2023-05-19T02:39:55.844Z,17.26
2023-05-19T02:44:58.148Z,17.18
2023-05-19T02:50:00.220Z,17.11
2023-05-19T02:55:03.605Z,17.07
2023-05-19T03:02:14.895Z,17.00
2023-05-19T03:07:17.312Z,16.98
2023-05-19T03:12:19.572Z,16.95
2023-05-19T03:17:21.876Z,16.91
2023-05-19T03:22:23.988Z,16.89
2023-05-19T03:27:29.523Z,16.85
2023-05-19T03:32:33.008Z,16.81
2023-05-19T03:37:35.370Z,16.78
2023-05-19T03:42:37.953Z,16.76
2023-05-19T03:47:41.356Z,16.75
2023-05-19T03:53:18.826Z,16.73
2023-05-19T03:58:20.888Z,16.70
2023-05-19T04:03:56.922Z,16.64
2023-05-19T04:09:00.470Z,16.63
2023-05-19T04:14:02.713Z,16.58
2023-05-19T04:19:04.674Z,16.53
2023-05-19T04:27:58.901Z,16.49
2023-05-19T04:33:01.503Z,16.47
2023-05-19T04:38:04.179Z,16.44
2023-05-19T04:43:09.595Z,16.42
2023-05-19T04:48:12.277Z,16.38
2023-05-19T04:53:15.657Z,16.35
2023-05-19T04:58:19.864Z,16.33
2023-05-19T05:03:23.257Z,16.32
2023-05-19T05:08:27.154Z,16.31
2023-05-19T05:13:30.543Z,16.28
2023-05-19T05:18:33.880Z,16.27
2023-05-19T05:23:36.734Z,16.27
2023-05-19T05:28:41.850Z,16.27
2023-05-19T05:33:44.817Z,16.28
2023-05-19T05:38:48.768Z,16.32
2023-05-19T05:43:51.183Z,16.37
2023-05-19T05:48:54.153Z,16.44
2023-05-19T05:53:57.678Z,16.51
2023-05-19T05:59:07.319Z,16.61
2023-05-19T06:04:10.435Z,16.72
2023-05-19T06:09:12.550Z,16.83
2023-05-19T06:14:14.877Z,16.95
2023-05-19T06:19:36.992Z,17.03
2023-05-19T06:24:39.641Z,17.10
2023-05-19T06:29:44.307Z,17.19
2023-05-19T06:34:54.112Z,17.27
2023-05-19T06:39:56.843Z,17.36
2023-05-19T06:45:00.198Z,17.49
2023-05-19T06:50:03.070Z,17.61
2023-05-19T06:55:13.292Z,17.74
2023-05-19T07:00:31.116Z,17.88
2023-05-19T07:05:34.027Z,17.98
2023-05-19T07:10:39.271Z,18.05
2023-05-19T07:15:45.886Z,18.09
2023-05-19T07:20:48.258Z,18.13
2023-05-19T07:25:57.002Z,18.20
2023-05-19T07:30:59.394Z,18.42
2023-05-19T07:36:01.507Z,18.69
2023-05-19T07:41:03.971Z,18.96
2023-05-19T07:46:06.532Z,19.26
2023-05-19T07:51:10.337Z,19.53
2023-05-19T07:56:12.376Z,19.82
2023-05-19T08:01:14.480Z,20.12
2023-05-19T08:06:16.629Z,20.28
2023-05-19T08:11:18.722Z,20.35
2023-05-19T08:16:20.925Z,20.49
2023-05-19T08:21:23.261Z,20.60
2023-05-19T08:26:26.417Z,20.69
2023-05-19T08:31:29.496Z,21.03
2023-05-19T08:36:31.704Z,21.39
2023-05-19T08:41:33.831Z,21.66
2023-05-19T08:46:36.290Z,21.86
2023-05-19T08:51:48.497Z,21.97
2023-05-19T08:56:50.651Z,22.11
2023-05-19T09:01:54.963Z,21.94
2023-05-19T09:06:58.911Z,21.91
2023-05-19T09:12:01.121Z,21.65
2023-05-19T09:17:03.622Z,21.30
2023-05-19T09:22:54.392Z,21.44
2023-05-19T09:27:56.755Z,21.30
2023-05-19T09:32:59.065Z,21.58
2023-05-19T09:38:01.392Z,21.20
2023-05-19T09:43:08.063Z,20.94
2023-05-19T09:48:47.357Z,20.78
2023-05-19T09:54:10.236Z,20.97
2023-05-19T09:59:16.208Z,20.89
2023-05-19T10:04:18.749Z,21.13
2023-05-19T10:09:25.026Z,21.53
2023-05-19T10:14:29.644Z,21.46
2023-05-19T10:19:31.782Z,20.84
2023-05-19T10:24:34.191Z,20.56
2023-05-19T10:29:40.216Z,20.42
2023-05-19T10:35:01.026Z,20.78
2023-05-19T10:40:13.758Z,21.03
2023-05-19T10:45:24.223Z,21.09
2023-05-19T10:50:26.619Z,21.13
2023-05-19T10:55:52.101Z,20.88
2023-05-19T11:01:01.113Z,20.56
2023-05-19T11:06:30.508Z,20.64
2023-05-19T11:11:50.344Z,20.48
2023-05-19T11:16:56.759Z,20.50
2023-05-19T11:22:13.120Z,20.33
2023-05-19T11:27:34.114Z,20.66
2023-05-19T11:32:39.614Z,20.44
2023-05-19T11:37:42.923Z,20.16
2023-05-19T11:42:45.392Z,19.99
2023-05-19T11:48:01.262Z,20.03
2023-05-19T11:53:04.449Z,20.21
2023-05-19T11:58:07.388Z,20.28
2023-05-19T12:03:10.101Z,20.09
2023-05-19T12:08:12.854Z,19.90
2023-05-19T12:13:15.062Z,19.75
2023-05-19T12:22:56.690Z,20.05
2023-05-19T12:28:00.427Z,20.28
2023-05-19T12:33:03.427Z,20.35
2023-05-19T12:38:07.166Z,20.43
2023-05-19T12:43:19.143Z,20.43
2023-05-19T12:48:24.617Z,20.33
2023-05-19T12:53:28.022Z,20.25
2023-05-19T12:58:34.337Z,20.19
2023-05-19T13:03:43.267Z,20.07
2023-05-19T13:08:47.372Z,19.96
2023-05-19T13:13:56.874Z,19.92
2023-05-19T13:18:59.604Z,19.96
2023-05-19T13:24:03.596Z,20.01
2023-05-19T13:29:06.033Z,20.04
2023-05-19T13:34:08.209Z,20.16
2023-05-19T13:39:10.829Z,20.27
2023-05-19T13:44:13.113Z,20.28
2023-05-19T13:49:15.421Z,20.23
2023-05-19T13:54:18.097Z,20.18
2023-05-19T13:59:21.659Z,20.10
2023-05-19T14:04:24.677Z,20.08
2023-05-19T14:09:28.077Z,20.20
2023-05-19T14:14:35.402Z,20.39
2023-05-19T14:22:59.614Z,20.43
2023-05-19T14:28:02.056Z,20.40
2023-05-19T14:33:04.597Z,20.30
2023-05-19T14:38:07.100Z,20.25
2023-05-19T14:43:09.090Z,20.15
2023-05-19T14:48:12.000Z,19.98
2023-05-19T14:53:14.560Z,19.96
2023-05-19T14:58:27.658Z,19.96
2023-05-19T15:03:30.969Z,19.97
2023-05-19T15:08:33.464Z,19.95
2023-05-19T15:13:35.522Z,19.93
2023-05-19T15:18:37.836Z,19.91
2023-05-19T15:23:40.098Z,19.92
2023-05-19T15:28:42.601Z,19.90
2023-05-19T15:33:44.957Z,19.88
2023-05-19T15:38:47.081Z,19.86
2023-05-19T15:43:49.402Z,19.81
2023-05-19T15:48:51.729Z,19.75
2023-05-19T15:53:57.892Z,19.66
2023-05-19T15:59:00.448Z,19.58
2023-05-19T16:04:05.543Z,19.52
2023-05-19T16:09:07.824Z,19.49
2023-05-19T16:14:09.992Z,19.48
2023-05-19T16:19:12.162Z,19.49
2023-05-19T16:24:14.434Z,19.38
2023-05-19T16:29:16.503Z,19.29
2023-05-19T16:34:18.670Z,19.17
2023-05-19T16:39:21.023Z,19.12
2023-05-19T16:44:24.666Z,19.15
2023-05-19T16:49:26.948Z,19.05
2023-05-19T16:54:29.202Z,18.91
2023-05-19T16:59:31.434Z,18.82
2023-05-19T17:04:33.836Z,18.81
2023-05-19T17:09:36.127Z,18.85
2023-05-19T17:14:38.453Z,18.88
2023-05-19T17:19:40.596Z,18.88
2023-05-19T17:24:42.911Z,18.82
2023-05-19T17:29:45.054Z,18.80
2023-05-19T17:34:47.075Z,18.81
2023-05-19T17:39:49.798Z,18.78
2023-05-19T17:44:52.062Z,18.81
2023-05-19T17:49:54.282Z,18.80
2023-05-19T17:54:56.755Z,18.78
2023-05-19T18:00:00.159Z,18.75
2023-05-19T18:05:02.662Z,18.69
2023-05-19T18:10:06.718Z,18.66
2023-05-19T18:15:09.058Z,18.65
2023-05-19T18:20:11.970Z,18.62
2023-05-19T18:25:14.197Z,18.58
2023-05-19T18:30:16.528Z,18.56
2023-05-19T18:35:20.790Z,18.49
2023-05-19T18:40:23.039Z,18.43
2023-05-19T18:45:25.323Z,18.40
2023-05-19T18:50:27.650Z,18.35
2023-05-19T18:55:30.097Z,18.32
2023-05-19T19:00:32.930Z,18.31
2023-05-19T19:05:37.569Z,18.31
2023-05-19T19:10:40.800Z,18.29
2023-05-19T19:15:43.050Z,18.28
2023-05-19T19:23:05.901Z,18.22
2023-05-19T19:28:08.971Z,18.18
2023-05-19T19:33:11.243Z,18.17
2023-05-19T19:38:13.683Z,18.15
2023-05-19T19:43:15.820Z,18.12
2023-05-19T19:48:18.045Z,18.14
2023-05-19T19:53:20.136Z,18.14
2023-05-19T19:58:22.461Z,18.16
2023-05-19T20:03:25.299Z,18.19
2023-05-19T20:08:30.355Z,18.23
2023-05-19T20:13:32.907Z,18.24
2023-05-19T20:18:35.126Z,18.19
2023-05-19T20:23:42.472Z,18.13
2023-05-19T20:28:49.925Z,18.09
2023-05-19T20:33:52.632Z,18.12
2023-05-19T20:38:55.070Z,18.06
2023-05-19T20:43:57.331Z,17.94
2023-05-19T20:48:59.511Z,17.80
2023-05-19T20:54:01.764Z,17.71
2023-05-19T20:59:06.241Z,17.62
2023-05-19T21:04:08.496Z,17.51
2023-05-19T21:09:10.892Z,17.42
2023-05-19T21:14:13.228Z,17.33
2023-05-19T21:19:15.636Z,17.25
2023-05-19T21:24:17.999Z,17.14
2023-05-19T21:29:20.426Z,17.08
2023-05-19T21:34:23.682Z,17.06
2023-05-19T21:39:25.940Z,17.02
2023-05-19T21:44:28.329Z,16.97
2023-05-19T21:49:33.051Z,16.96
2023-05-19T21:54:44.979Z,16.95
2023-05-19T21:59:51.994Z,16.94
2023-05-19T22:04:55.081Z,16.97
2023-05-19T22:10:02.972Z,16.92
2023-05-19T22:15:06.706Z,16.89
2023-05-19T22:20:09.654Z,16.86
2023-05-19T22:25:11.843Z,16.83
2023-05-19T22:30:14.175Z,16.81
2023-05-19T22:35:16.407Z,16.76
2023-05-19T22:40:19.816Z,16.75
2023-05-19T22:45:22.144Z,16.79
2023-05-19T22:50:24.782Z,16.81
2023-05-19T22:55:27.421Z,16.77
2023-05-19T23:00:35.511Z,16.74
2023-05-19T23:05:40.313Z,16.69
2023-05-19T23:10:42.363Z,16.65
2023-05-19T23:15:44.233Z,16.63
2023-05-19T23:22:52.482Z,16.60
2023-05-19T23:27:55.500Z,16.58
2023-05-19T23:32:58.206Z,16.61
2023-05-19T23:38:03.742Z,16.60
2023-05-19T23:43:06.260Z,16.59
2023-05-19T23:48:11.446Z,16.54
2023-05-19T23:53:13.883Z,16.50
2023-05-19T23:58:16.232Z,16.43
